Map

Track Data

SID SEASON NUMBER BASIN SUBBASIN NAME ISO_TIME NATURE LAT LON WMO_WIND WMO_PRES WMO_AGENCY TRACK_TYPE DIST2LAND LANDFALL IFLAG USA_AGENCY USA_ATCF_ID USA_LAT USA_LON USA_RECORD USA_STATUS USA_WIND USA_PRES USA_SSHS USA_R34_NE USA_R34_SE USA_R34_SW USA_R34_NW USA_R50_NE USA_R50_SE USA_R50_SW USA_R50_NW USA_R64_NE USA_R64_SE USA_R64_SW USA_R64_NW USA_POCI USA_ROCI USA_RMW USA_EYE TOKYO_LAT TOKYO_LON TOKYO_GRADE TOKYO_WIND TOKYO_PRES TOKYO_R50_DIR TOKYO_R50_LONG TOKYO_R50_SHORT TOKYO_R30_DIR TOKYO_R30_LONG TOKYO_R30_SHORT TOKYO_LAND CMA_LAT CMA_LON CMA_CAT CMA_WIND CMA_PRES HKO_LAT HKO_LON HKO_CAT HKO_WIND HKO_PRES NEWDELHI_LAT NEWDELHI_LON NEWDELHI_GRADE NEWDELHI_WIND NEWDELHI_PRES NEWDELHI_CI NEWDELHI_DP NEWDELHI_POCI REUNION_LAT REUNION_LON REUNION_TYPE REUNION_WIND REUNION_PRES REUNION_TNUM REUNION_CI REUNION_RMW REUNION_R34_NE REUNION_R34_SE REUNION_R34_SW REUNION_R34_NW REUNION_R50_NE REUNION_R50_SE REUNION_R50_SW REUNION_R50_NW REUNION_R64_NE REUNION_R64_SE REUNION_R64_SW REUNION_R64_NW BOM_LAT BOM_LON BOM_TYPE BOM_WIND BOM_PRES BOM_TNUM BOM_CI BOM_RMW BOM_R34_NE BOM_R34_SE BOM_R34_SW BOM_R34_NW BOM_R50_NE BOM_R50_SE BOM_R50_SW BOM_R50_NW BOM_R64_NE BOM_R64_SE BOM_R64_SW BOM_R64_NW BOM_ROCI BOM_POCI BOM_EYE BOM_POS_METHOD BOM_PRES_METHOD NADI_LAT NADI_LON NADI_CAT NADI_WIND NADI_PRES WELLINGTON_LAT WELLINGTON_LON WELLINGTON_WIND WELLINGTON_PRES DS824_LAT DS824_LON DS824_STAGE DS824_WIND DS824_PRES TD9636_LAT TD9636_LON TD9636_STAGE TD9636_WIND TD9636_PRES TD9635_LAT TD9635_LON TD9635_WIND TD9635_PRES TD9635_ROCI NEUMANN_LAT NEUMANN_LON NEUMANN_CLASS NEUMANN_WIND NEUMANN_PRES MLC_LAT MLC_LON MLC_CLASS MLC_WIND MLC_PRES USA_GUST BOM_GUST BOM_GUST_PER REUNION_GUST REUNION_GUST_PER USA_SEAHGT USA_SEARAD_NE USA_SEARAD_SE USA_SEARAD_SW USA_SEARAD_NW STORM_SPEED STORM_DIR
1982058S10185 1982 17 SP MM ISAAC 1982-02-27 00:00:00 NR -9.80000 -175.000 30 997 wellington main 478 423 ________O_____ -1 -9.80000 -175.000 30 997 11 120
1982058S10185 1982 17 SP MM ISAAC 1982-02-27 03:00:00 NR -10.0721 -174.522 main 423 385 ________P_____ -1 -10.0721 -174.522 30 997 11 120
1982058S10185 1982 17 SP MM ISAAC 1982-02-27 06:00:00 NR -10.3452 -174.035 main 381 336 ________P_____ -1 -10.3452 -174.035 30 997 11 119
1982058S10185 1982 17 SP MM ISAAC 1982-02-27 09:00:00 NR -10.6206 -173.531 main 333 291 ________P_____ -1 -10.6206 -173.531 30 997 12 119
1982058S10185 1982 17 SP MM ISAAC 1982-02-27 12:00:00 NR -10.9000 -173.000 30 997 wellington main 291 257 ________O_____ -1 -10.9000 -173.000 30 997 12 118
1982058S10185 1982 17 SP MM ISAAC 1982-02-27 15:00:00 NR -11.1849 -172.442 main 257 230 ________P_____ -1 -11.1849 -172.442 30 997 12 118
1982058S10185 1982 17 SP MM ISAAC 1982-02-27 18:00:00 NR -11.4779 -171.883 main 230 219 ________P_____ -1 -11.4779 -171.883 30 997 12 119
1982058S10185 1982 17 SP MM ISAAC 1982-02-27 21:00:00 NR -11.7819 -171.357 main 219 218 ________P_____ -1 -11.7819 -171.357 30 997 17 127
1982058S10185 1982 17 SP MM ISAAC 1982-02-28 00:00:00 TS -12.4857 -170.514 30 997 wellington main 228 228 O_______O_O_O_ jtwc_sh SH221982 -13.0000 -170.000 -1 -12.1000 -170.900 30 997 -13.0000 -170.000 1 -13.0000 -170.000 TC 30 17 133
1982058S10185 1982 17 SP MM ISAAC 1982-02-28 03:00:00 TS -12.9308 -170.079 main 244 240 P_______P_P_P_ SH221982 -13.2476 -169.785 -1 -12.4434 -170.508 31 996 -13.2720 -169.807 1 -13.2475 -169.788 TC 30 11 139
1982058S10185 1982 17 SP MM ISAAC 1982-02-28 06:00:00 TS -13.2926 -169.789 main 263 263 O_______P_P_O_ jtwc_sh SH221982 -13.5000 -169.600 -1 -12.7996 -170.193 32 996 -13.5352 -169.630 1 -13.5000 -169.600 TC 30 8 145
1982058S10185 1982 17 SP MM ISAAC 1982-02-28 09:00:00 TS -13.6129 -169.594 main 281 281 P_______P_P_P_ SH221982 -13.7575 -169.470 -1 -13.1560 -169.955 33 995 -13.7808 -169.489 1 -13.7575 -169.463 TC 30 7 154
1982058S10185 1982 17 SP MM ISAAC 1982-02-28 12:00:00 TS -13.8750 -169.500 35 995 wellington main 291 291 O_______O_O_O_ jtwc_sh SH221982 -14.0000 -169.400 -1 -13.5000 -169.800 35 995 -14.0000 -169.400 1 -14.0000 -169.400 TC 30 5 166
1982058S10185 1982 17 SP MM ISAAC 1982-02-28 15:00:00 TS -14.1112 -169.466 main 293 293 P_______P_P_P_ SH221982 -14.2150 -169.370 -1 -13.8263 -169.692 37 993 -14.1883 -169.376 1 -14.2150 -169.427 TC 30 5 177
1982058S10185 1982 17 SP MM ISAAC 1982-02-28 18:00:00 TS -14.3236 -169.494 main 296 296 O_______P_P_O_ jtwc_sh SH221982 -14.4000 -169.400 -1 -14.1372 -169.665 40 991 -14.3574 -169.410 1 -14.4000 -169.500 TC 30 4 192
1982058S10185 1982 17 SP MM ISAAC 1982-02-28 21:00:00 TS -14.5112 -169.553 main 291 291 P_______P_P_P_ SH221982 -14.5500 -169.485 -1 -14.4295 -169.705 42 989 -14.5227 -169.489 1 -14.5425 -169.535 TC 30 4 202
1982058S10185 1982 17 SP MM ISAAC 1982-03-01 00:00:00 TS -14.7000 -169.650 45 987 wellington main 287 287 O_______O_O_O_ jtwc_sh SH221982 -14.7000 -169.600 -1 -14.7000 -169.800 45 987 -14.7000 -169.600 1 -14.7000 -169.600 TC 30 4 205
1982058S10185 1982 17 SP MM ISAAC 1982-03-01 03:00:00 TS -14.9089 -169.750 main 286 286 P_______P_P_P_ SH221982 -14.8850 -169.685 -1 -14.9221 -169.901 47 985 -14.8860 -169.681 1 -14.9425 -169.735 TC 30 5 208
1982058S10185 1982 17 SP MM ISAAC 1982-03-01 06:00:00 TS -15.1292 -169.887 main 287 284 O_______P_P_O_ jtwc_sh SH221982 -15.1000 -169.800 -1 -15.1273 -170.053 50 983 -15.0896 -169.796 1 -15.2000 -169.900 TC 30 5 213
1982058S10185 1982 17 SP MM ISAAC 1982-03-01 09:00:00 TS -15.3430 -170.046 main 290 287 P_______P_P_P_ SH221982 -15.3274 -169.955 -1 -15.3439 -170.254 52 981 -15.3234 -169.963 1 -15.3774 -170.013 TC 30 6 218
1982058S10185 1982 17 SP MM ISAAC 1982-03-01 12:00:00 TS -15.6000 -170.275 55 980 wellington main 287 287 O_______O_O_O_ jtwc_sh SH221982 -15.6000 -170.200 -1 -15.6000 -170.500 55 980 -15.6000 -170.200 2 -15.6000 -170.200 TC 30 8 222
1982058S10185 1982 17 SP MM ISAAC 1982-03-01 15:00:00 TS -15.9362 -170.604 main 291 291 P_______P_P_P_ SH221982 -15.9276 -170.570 -1 -15.9155 -170.758 57 977 -15.9240 -170.524 2 -15.9776 -170.562 TC 40 10 224
1982058S10185 1982 17 SP MM ISAAC 1982-03-01 18:00:00 TS -16.3163 -170.995 main 308 308 O_______P_P_O_ jtwc_sh SH221982 -16.3000 -171.000 -1 -16.2747 -171.061 60 975 -16.2903 -170.917 2 -16.4000 -171.000 TC 50 11 225
1982058S10185 1982 17 SP MM ISAAC 1982-03-01 21:00:00 TS -16.7001 -171.388 main 335 335 P_______P_P_P_ SH221982 -16.6924 -171.400 -1 -16.6716 -171.408 62 972 -16.6864 -171.352 2 -16.7499 -171.393 TC 57 11 225
1982058S10185 1982 17 SP MM ISAAC 1982-03-02 00:00:00 TS -17.1000 -171.800 65 970 wellington main 371 371 O_______O_O_O_ jtwc_sh SH221982 -17.1000 -171.800 -1 -17.1000 -171.800 65 970 -17.1000 -171.800 4 -17.1000 -171.800 TC 65 11 225
1982058S10185 1982 17 SP MM ISAAC 1982-03-02 03:00:00 TS -17.5055 -172.224 main 414 414 P_______P_P_P_ SH221982 -17.4924 -172.193 -1 -17.5465 -172.240 68 966 -17.4982 -172.214 4 -17.4850 -172.250 TC 70 12 225
1982058S10185 1982 17 SP MM ISAAC 1982-03-02 06:00:00 TS -17.9331 -172.664 main 459 459 O_______P_P_O_ jtwc_sh SH221982 -17.9000 -172.600 -1 -18.0204 -172.720 72 962 -17.9122 -172.636 4 -17.9000 -172.700 TC 75 12 224
1982058S10185 1982 17 SP MM ISAAC 1982-03-02 09:00:00 TS -18.3828 -173.106 main 517 517 P_______P_P_P_ SH221982 -18.3424 -173.043 -1 -18.5090 -173.215 76 958 -18.3450 -173.065 4 -18.3348 -173.100 TC 80 12 223
1982058S10185 1982 17 SP MM ISAAC 1982-03-02 12:00:00 TS -18.8500 -173.550 80 955 wellington main 569 569 O_______O_O_O_ jtwc_sh SH221982 -18.8000 -173.500 -1 -19.0000 -173.700 80 955 -18.8000 -173.500 4 -18.8000 -173.500 TC 85 13 222
1982058S10185 1982 17 SP MM ISAAC 1982-03-02 15:00:00 TS -19.3171 -174.001 main 633 633 P_______P_P_P_ SH221982 -19.2349 -173.950 -1 -19.4830 -174.164 83 948 -19.2580 -173.948 4 -19.2924 -173.943 TC 92 13 222
1982058S10185 1982 17 SP MM ISAAC 1982-03-02 18:00:00 TS -19.8012 -174.453 main 679 672 O_______P_P_O_ jtwc_sh SH221982 -19.7000 -174.400 -1 -19.9649 -174.610 87 942 -19.7399 -174.401 4 -19.8000 -174.400 TC 100 13 221
1982058S10185 1982 17 SP MM ISAAC 1982-03-02 21:00:00 TS -20.3008 -174.895 main 673 667 P_______P_P_P_ SH221982 -20.2274 -174.850 -1 -20.4394 -175.026 91 936 -20.2518 -174.854 4 -20.2849 -174.850 TC 100 13 219
1982058S10185 1982 17 SP MM ISAAC 1982-03-03 00:00:00 TS -20.8250 -175.325 95 930 wellington main 674 674 O_______O_O_O_ jtwc_sh SH221982 -20.8000 -175.300 -1 -20.9000 -175.400 95 930 -20.8000 -175.300 4 -20.8000 -175.300 TC 100 14 217
1982058S10185 1982 17 SP MM ISAAC 1982-03-03 03:00:00 TS -21.3734 -175.775 main 683 676 P_______P_P_P_ SH221982 -21.3849 -175.758 -1 -21.2905 -175.814 92 933 -21.3881 -175.734 4 -21.4301 -175.794 TC 95 14 216
1982058S10185 1982 17 SP MM ISAAC 1982-03-03 06:00:00 TS -21.9088 -176.183 main 681 679 O_______P_P_O_ jtwc_sh SH221982 -22.0000 -176.200 -1 -21.6747 -176.173 90 937 -22.0081 -176.159 4 -22.0000 -176.200 TC 90 12 214
1982058S10185 1982 17 SP MM ISAAC 1982-03-03 09:00:00 TS -22.3424 -176.492 main 686 686 P_______P_P_P_ SH221982 -22.6426 -176.609 -1 -22.0965 -176.419 87 941 -22.6492 -176.580 4 -22.2847 -176.463 TC 85 9 205
1982058S10185 1982 17 SP MM ISAAC 1982-03-03 12:00:00 TS -22.7400 -176.600 85 945 wellington main 710 710 O_______O_O_O_ jtwc_sh SH221982 -23.3000 -177.000 -1 -22.6000 -176.500 85 945 -23.3000 -177.000 4 -22.6000 -176.500 TC 80 9 172
1982058S10185 1982 17 SP MM ISAAC 1982-03-03 15:00:00 TS -23.2388 -176.358 main 764 764 ________P___P_ SH221982 -1 -23.2451 -176.440 82 948 4 -23.2326 -176.275 TC 77 14 158
1982058S10185 1982 17 SP MM ISAAC 1982-03-03 18:00:00 TS -23.9860 -176.050 main 852 852 ________P___O_ -1 -23.9721 -176.200 80 952 4 -24.0000 -175.900 TC 75 16 159
1982058S10185 1982 17 SP MM ISAAC 1982-03-03 21:00:00 TS -24.7473 -175.712 main 938 938 ________P___P_ -1 -24.7381 -175.785 77 956 4 -24.7566 -175.638 TC 72 17 153
1982058S10185 1982 17 SP MM ISAAC 1982-03-04 00:00:00 TS -25.5000 -175.200 75 960 wellington main 1039 1039 ________O___O_ -1 -25.5000 -175.200 75 960 -25.5000 -175.200 TC 70 18 141
1982058S10185 1982 17 SP MM ISAAC 1982-03-04 03:00:00 TS -26.1570 -174.456 main 1144 1144 ________P___P_ -1 -26.1558 -174.529 72 962 -26.1582 -174.382 TC 67 20 131
1982058S10185 1982 17 SP MM ISAAC 1982-03-04 06:00:00 TS -26.8013 -173.545 main 1259 1259 ________P___O_ -1 -26.8026 -173.691 70 965 -26.8000 -173.400 TC 65 21 129
1982058S10185 1982 17 SP MM ISAAC 1982-03-04 09:00:00 TS -27.4706 -172.632 main 1376 1376 ________P___P_ -1 -27.4730 -172.707 67 967 -27.4681 -172.557 TC 65 22 129
1982058S10185 1982 17 SP MM ISAAC 1982-03-04 12:00:00 TS -28.2000 -171.600 65 970 wellington main 1396 1393 ________O___O_ -1 -28.2000 -171.600 65 970 -28.2000 -171.600 TC 65 25 128
1982058S10185 1982 17 SP MM ISAAC 1982-03-04 15:00:00 TS -28.9902 -170.397 main 1405 1404 ________P___P_ -1 -28.9602 -170.428 62 972 -29.0202 -170.367 TC 62 28 127
1982058S10185 1982 17 SP MM ISAAC 1982-03-04 18:00:00 TS -29.8418 -169.068 main 1434 1434 ________P___O_ -1 -29.7836 -169.135 60 975 -29.9000 -169.000 TC 60 29 127
1982058S10185 1982 17 SP MM ISAAC 1982-03-04 21:00:00 TS -30.7177 -167.716 main 1477 1477 ________P___P_ -1 -30.6899 -167.751 57 977 -30.7455 -167.682 TC 55 30 128
1982058S10185 1982 17 SP MM ISAAC 1982-03-05 00:00:00 TS -31.7000 -166.300 55 980 wellington main 1528 1528 ________O___O_ -1 -31.7000 -166.300 55 980 -31.7000 -166.300 TC 50 33 130
1982058S10185 1982 17 SP MM ISAAC 1982-03-05 03:00:00 TS -32.8368 -164.794 main 1597 1597 ________P___P_ -1 -32.8271 -164.803 51 982 -32.8466 -164.786 TC 45 35 133
1982058S10185 1982 17 SP MM ISAAC 1982-03-05 06:00:00 TS -34.0725 -163.228 main 1680 1680 ________P___O_ -1 -34.0449 -163.256 47 985 -34.1000 -163.200 TC 40 36 134
1982058S10185 1982 17 SP MM ISAAC 1982-03-05 09:00:00 TS -35.3371 -161.632 main 1782 1782 ________P___P_ -1 -35.3157 -161.655 43 987 -35.3586 -161.609 TC 35 37 134
1982058S10185 1982 17 SP MM ISAAC 1982-03-05 12:00:00 TS -36.6000 -160.000 40 990 wellington main 1891 ________O___O_ -1 -36.6000 -160.000 40 990 -36.6000 -160.000 TC 30 36 134

Digital Typhoon Data and Search

About IBTrACS Database

This database is a web-friendly format of International Best Track Archive for Climate Stewardship (IBTrACS), a global best track data archive curated by NOAA dating back to 1842.

Updated: 2021-11-26